Wolf, WY (82844)

4:40 AM MST on February 07, 2016 (GMT -0700)
Sheridan County | | Change Station
CLOSE
Current Station
Airport
Location: Sheridan,
Elevation: 3967 ft
Nearby Weather Stations

Elev 3967 ft 44.76 °N, 106.97 °W | Updated 47 minutes ago

Clear
Clear
34 °F
Feels Like 23 °F
N
18
Wind Variable Wind from NW

Today
High -- | Low -- °F
--% Chance of Precip.
Yesterday
High -- | Low -- °F
Precip. -- in
Pressure 30.30 in
Visibility -9999.0 miles
Clouds Mostly Cloudy 7000 ft
Overcast 9000 ft
Windchill 23 °F
Dew Point 19 °F
Humidity 54%
Rainfall 0.00 in
Snow Depth Not available.
7:21 AM 5:25 PM
Waning Crescent, 2% visible
METAR KSHR 071053Z AUTO 32016KT BKN070 OVC090 01/M07 A3023 RMK AO2 PK WND 30027/1017 SLP259 T00111072 $
Pressure 30.30 in
Visibility -9999.0 miles
Clouds Mostly Cloudy 7000 ft
Overcast 9000 ft
Windchill 23 °F
Dew Point 19 °F
Humidity 54%
Rainfall 0.00 in
Snow Depth Not available.
7:21 AM 5:25 PM
Waning Crescent, 2% visible
METAR KSHR 071053Z AUTO 32016KT BKN070 OVC090 01/M07 A3023 RMK AO2 PK WND 30027/1017 SLP259 T00111072 $

10-Day Weather Forecast

Almanac

Astronomy

Feb. 07, 2016 Rise Set
Actual Time
Civil Twilight
Nautical Twilight
Astronomical Twilight
Moon
Length of Visible Light
Length of Day
Tomorrow will be .
, % of the Moon is Illuminated

Today's Extremes

State Highs State Lows

Community

WunderPhotos

Upload Photos

1,891,168 photos uploaded!

WunderBlog® & News

Nearby

Air Quality

  Air Quality AQ Index Pollutant
Not available.

Snow Depth

Station Depth Elevation

Earthquake Activity

City Distance Mag. Time & Date
Minimum magnitude displayed is 2.5.

Coastal Water Temperatures

Place Temperature

Stations

Nearby Weather Stations

Station Location Temp. Windchill Dew Point Humidity Wind Precip. Elev Updated Type
                   

Watches & Warnings

There are currently no watches in effect.